sensor_id;sensor_type;location;lat;lon;timestamp;pressure;altitude;pressure_sealevel;temperature;humidity
11985;BME280;6052;53.246;10.368;2023-12-28T00:00:18;100179.25;;;7.82;100.00
11985;BME280;6052;53.246;10.368;2023-12-28T00:02:50;100197.16;;;7.93;100.00
11985;BME280;6052;53.246;10.368;2023-12-28T00:05:20;100178.31;;;7.88;100.00
11985;BME280;6052;53.246;10.368;2023-12-28T00:07:49;100163.69;;;7.91;100.00
11985;BME280;6052;53.246;10.368;2023-12-28T00:10:25;100164.41;;;7.98;100.00
11985;BME280;6052;53.246;10.368;2023-12-28T00:12:55;100153.34;;;7.94;100.00
11985;BME280;6052;53.246;10.368;2023-12-28T00:15:25;100156.97;;;8.00;100.00
11985;BME280;6052;53.246;10.368;2023-12-28T00:17:58;100159.97;;;8.03;100.00
11985;BME280;6052;53.246;10.368;2023-12-28T00:20:28;100162.97;;;8.07;100.00
11985;BME280;6052;53.246;10.368;2023-12-28T00:22:58;100153.72;;;7.98;100.00
11985;BME280;6052;53.246;10.368;2023-12-28T00:25:28;100165.09;;;8.05;100.00
11985;BME280;6052;53.246;10.368;2023-12-28T00:27:58;100159.28;;;7.96;100.00
11985;BME280;6052;53.246;10.368;2023-12-28T00:30:28;100148.72;;;8.01;100.00
11985;BME280;6052;53.246;10.368;2023-12-28T00:33:02;100174.72;;;8.06;100.00
11985;BME280;6052;53.246;10.368;2023-12-28T00:35:31;100189.03;;;8.11;100.00
11985;BME280;6052;53.246;10.368;2023-12-28T00:38:01;100185.63;;;8.16;100.00
11985;BME280;6052;53.246;10.368;2023-12-28T00:40:30;100179.63;;;8.09;100.00
11985;BME280;6052;53.246;10.368;2023-12-28T00:43:00;100171.47;;;8.15;100.00
11985;BME280;6052;53.246;10.368;2023-12-28T00:45:30;100186.25;;;8.18;100.00
11985;BME280;6052;53.246;10.368;2023-12-28T00:48:02;100199.34;;;8.19;100.00
11985;BME280;6052;53.246;10.368;2023-12-28T00:50:32;100196.47;;;8.21;100.00
11985;BME280;6052;53.246;10.368;2023-12-28T00:53:02;100190.91;;;8.22;100.00
11985;BME280;6052;53.246;10.368;2023-12-28T00:55:32;100184.03;;;8.26;100.00
11985;BME280;6052;53.246;10.368;2023-12-28T00:58:02;100193.34;;;8.24;100.00
11985;BME280;6052;53.246;10.368;2023-12-28T01:00:31;100214.59;;;8.19;100.00
11985;BME280;6052;53.246;10.368;2023-12-28T01:03:04;100212.03;;;8.12;100.00
11985;BME280;6052;53.246;10.368;2023-12-28T01:05:33;100211.81;;;8.14;100.00
11985;BME280;6052;53.246;10.368;2023-12-28T01:08:03;100219.81;;;8.14;100.00
11985;BME280;6052;53.246;10.368;2023-12-28T01:10:33;100227.13;;;8.18;100.00
11985;BME280;6052;53.246;10.368;2023-12-28T01:13:03;100222.25;;;8.15;100.00
11985;BME280;6052;53.246;10.368;2023-12-28T01:15:33;100228.06;;;8.12;100.00
11985;BME280;6052;53.246;10.368;2023-12-28T01:18:05;100229.56;;;8.20;100.00
11985;BME280;6052;53.246;10.368;2023-12-28T01:20:35;100229.56;;;8.20;100.00
11985;BME280;6052;53.246;10.368;2023-12-28T01:23:04;100237.59;;;8.20;100.00
11985;BME280;6052;53.246;10.368;2023-12-28T01:25:34;100240.47;;;8.07;100.00
11985;BME280;6052;53.246;10.368;2023-12-28T01:28:04;100235.38;;;8.17;100.00
11985;BME280;6052;53.246;10.368;2023-12-28T01:30:33;100238.88;;;8.17;100.00
11985;BME280;6052;53.246;10.368;2023-12-28T01:33:06;100240.50;;;8.18;100.00
11985;BME280;6052;53.246;10.368;2023-12-28T01:35:36;100232.59;;;8.12;100.00
11985;BME280;6052;53.246;10.368;2023-12-28T01:38:06;100241.44;;;8.12;100.00
11985;BME280;6052;53.246;10.368;2023-12-28T01:40:35;100227.50;;;8.22;100.00
11985;BME280;6052;53.246;10.368;2023-12-28T01:43:05;100224.22;;;8.20;100.00
11985;BME280;6052;53.246;10.368;2023-12-28T01:45:35;100220.72;;;8.19;100.00
11985;BME280;6052;53.246;10.368;2023-12-28T01:48:07;100221.94;;;8.23;100.00
11985;BME280;6052;53.246;10.368;2023-12-28T01:50:38;100233.31;;;8.19;100.00
11985;BME280;6052;53.246;10.368;2023-12-28T01:53:08;100239.84;;;8.23;100.00
11985;BME280;6052;53.246;10.368;2023-12-28T01:55:38;100244.94;;;8.24;100.00
11985;BME280;6052;53.246;10.368;2023-12-28T01:58:08;100232.69;;;8.17;100.00
11985;BME280;6052;53.246;10.368;2023-12-28T02:00:38;100241.53;;;8.17;100.00
11985;BME280;6052;53.246;10.368;2023-12-28T02:03:12;100251.41;;;8.17;100.00
11985;BME280;6052;53.246;10.368;2023-12-28T02:05:42;100258.44;;;8.29;100.00
11985;BME280;6052;53.246;10.368;2023-12-28T02:08:12;100268.88;;;8.31;100.00
11985;BME280;6052;53.246;10.368;2023-12-28T02:10:43;100262.84;;;8.35;100.00
11985;BME280;6052;53.246;10.368;2023-12-28T02:13:13;100266.09;;;8.37;100.00
11985;BME280;6052;53.246;10.368;2023-12-28T02:15:43;100271.34;;;8.32;100.00
11985;BME280;6052;53.246;10.368;2023-12-28T02:18:20;100276.78;;;8.37;100.00
11985;BME280;6052;53.246;10.368;2023-12-28T02:20:51;100289.47;;;8.42;100.00
11985;BME280;6052;53.246;10.368;2023-12-28T02:23:21;100283.09;;;8.43;100.00
11985;BME280;6052;53.246;10.368;2023-12-28T02:25:53;100280.63;;;8.41;100.00
11985;BME280;6052;53.246;10.368;2023-12-28T02:28:22;100282.84;;;8.44;100.00
11985;BME280;6052;53.246;10.368;2023-12-28T02:30:52;100276.34;;;8.52;100.00
11985;BME280;6052;53.246;10.368;2023-12-28T02:33:28;100283.19;;;8.48;100.00
11985;BME280;6052;53.246;10.368;2023-12-28T02:36:02;100282.47;;;8.52;100.00
11985;BME280;6052;53.246;10.368;2023-12-28T02:38:36;100285.66;;;8.49;100.00
11985;BME280;6052;53.246;10.368;2023-12-28T02:41:09;100290.50;;;8.52;100.00
11985;BME280;6052;53.246;10.368;2023-12-28T02:43:39;100282.81;;;8.56;100.00
11985;BME280;6052;53.246;10.368;2023-12-28T02:46:08;100284.00;;;8.60;100.00
11985;BME280;6052;53.246;10.368;2023-12-28T02:48:39;100289.94;;;8.62;100.00
11985;BME280;6052;53.246;10.368;2023-12-28T02:51:08;100286.44;;;8.61;100.00
11985;BME280;6052;53.246;10.368;2023-12-28T02:53:38;100277.69;;;8.66;100.00
11985;BME280;6052;53.246;10.368;2023-12-28T02:56:10;100269.44;;;8.67;100.00
11985;BME280;6052;53.246;10.368;2023-12-28T02:58:40;100263.97;;;8.62;100.00
11985;BME280;6052;53.246;10.368;2023-12-28T03:01:09;100267.59;;;8.68;100.00
11985;BME280;6052;53.246;10.368;2023-12-28T03:03:39;100272.47;;;8.71;100.00
11985;BME280;6052;53.246;10.368;2023-12-28T03:06:09;100266.88;;;8.72;100.00
11985;BME280;6052;53.246;10.368;2023-12-28T03:08:38;100252.38;;;8.68;100.00
11985;BME280;6052;53.246;10.368;2023-12-28T03:11:11;100248.41;;;8.71;100.00
11985;BME280;6052;53.246;10.368;2023-12-28T03:13:40;100258.84;;;8.72;100.00
11985;BME280;6052;53.246;10.368;2023-12-28T03:16:10;100255.72;;;8.75;100.00
11985;BME280;6052;53.246;10.368;2023-12-28T03:18:40;100249.91;;;8.78;100.00
11985;BME280;6052;53.246;10.368;2023-12-28T03:21:09;100245.84;;;8.76;100.00
11985;BME280;6052;53.246;10.368;2023-12-28T03:23:39;100255.16;;;8.73;100.00
11985;BME280;6052;53.246;10.368;2023-12-28T03:26:11;100264.19;;;8.84;100.00
11985;BME280;6052;53.246;10.368;2023-12-28T03:28:41;100256.97;;;8.84;100.00
11985;BME280;6052;53.246;10.368;2023-12-28T03:31:10;100265.34;;;8.88;100.00
11985;BME280;6052;53.246;10.368;2023-12-28T03:33:40;100248.13;;;8.84;100.00
11985;BME280;6052;53.246;10.368;2023-12-28T03:36:17;100259.25;;;8.92;100.00
11985;BME280;6052;53.246;10.368;2023-12-28T03:38:47;100263.22;;;8.90;100.00
11985;BME280;6052;53.246;10.368;2023-12-28T03:41:20;100264.38;;;8.94;100.00
11985;BME280;6052;53.246;10.368;2023-12-28T03:43:49;100270.56;;;8.94;100.00
11985;BME280;6052;53.246;10.368;2023-12-28T03:46:19;100269.41;;;8.90;100.00
11985;BME280;6052;53.246;10.368;2023-12-28T03:48:49;100265.69;;;8.91;100.00
11985;BME280;6052;53.246;10.368;2023-12-28T03:51:19;100267.88;;;8.94;100.00
11985;BME280;6052;53.246;10.368;2023-12-28T03:53:48;100263.00;;;8.91;100.00
11985;BME280;6052;53.246;10.368;2023-12-28T03:56:22;100266.59;;;8.97;100.00
11985;BME280;6052;53.246;10.368;2023-12-28T03:58:53;100271.47;;;9.00;100.00
11985;BME280;6052;53.246;10.368;2023-12-28T04:01:23;100276.97;;;8.93;100.00
11985;BME280;6052;53.246;10.368;2023-12-28T04:03:53;100285.34;;;8.97;100.00
11985;BME280;6052;53.246;10.368;2023-12-28T04:06:23;100282.56;;;8.92;100.00
11985;BME280;6052;53.246;10.368;2023-12-28T04:08:52;100271.34;;;8.95;100.00
11985;BME280;6052;53.246;10.368;2023-12-28T04:11:25;100269.84;;;8.99;100.00
11985;BME280;6052;53.246;10.368;2023-12-28T04:13:54;100274.03;;;8.95;100.00
11985;BME280;6052;53.246;10.368;2023-12-28T04:16:24;100272.19;;;8.95;100.00
11985;BME280;6052;53.246;10.368;2023-12-28T04:18:53;100271.13;;;8.96;100.00
11985;BME280;6052;53.246;10.368;2023-12-28T04:21:23;100262.03;;;8.97;100.00
11985;BME280;6052;53.246;10.368;2023-12-28T04:23:53;100265.69;;;8.91;100.00
11985;BME280;6052;53.246;10.368;2023-12-28T04:26:25;100250.31;;;8.98;100.00
11985;BME280;6052;53.246;10.368;2023-12-28T04:28:55;100261.03;;;8.98;100.00
11985;BME280;6052;53.246;10.368;2023-12-28T04:31:25;100262.88;;;8.98;100.00
11985;BME280;6052;53.246;10.368;2023-12-28T04:33:54;100258.47;;;8.92;100.00
11985;BME280;6052;53.246;10.368;2023-12-28T04:36:24;100259.03;;;8.94;100.00
11985;BME280;6052;53.246;10.368;2023-12-28T04:38:54;100267.88;;;8.94;100.00
11985;BME280;6052;53.246;10.368;2023-12-28T04:41:26;100266.09;;;9.00;100.00
11985;BME280;6052;53.246;10.368;2023-12-28T04:43:56;100268.78;;;9.00;100.00
11985;BME280;6052;53.246;10.368;2023-12-28T04:46:25;100266.47;;;9.03;100.00
11985;BME280;6052;53.246;10.368;2023-12-28T04:48:52;100259.13;;;8.99;100.00
11985;BME280;6052;53.246;10.368;2023-12-28T04:51:22;100259.84;;;9.06;100.00
11985;BME280;6052;53.246;10.368;2023-12-28T04:53:52;100258.06;;;9.00;100.00
11985;BME280;6052;53.246;10.368;2023-12-28T04:56:21;100255.91;;;8.97;100.00
11985;BME280;6052;53.246;10.368;2023-12-28T04:58:54;100264.50;;;8.99;100.00
11985;BME280;6052;53.246;10.368;2023-12-28T05:01:23;100252.88;;;8.93;100.00
11985;BME280;6052;53.246;10.368;2023-12-28T05:03:54;100254.38;;;9.01;100.00
11985;BME280;6052;53.246;10.368;2023-12-28T05:06:27;100259.38;;;8.97;100.00
11985;BME280;6052;53.246;10.368;2023-12-28T05:08:57;100258.06;;;9.00;100.00
11985;BME280;6052;53.246;10.368;2023-12-28T05:11:26;100251.69;;;9.01;100.00
11985;BME280;6052;53.246;10.368;2023-12-28T05:13:59;100257.16;;;9.06;100.00
11985;BME280;6052;53.246;10.368;2023-12-28T05:16:28;100259.97;;;8.99;100.00
11985;BME280;6052;53.246;10.368;2023-12-28T05:18:58;100265.66;;;9.03;100.00
11985;BME280;6052;53.246;10.368;2023-12-28T05:21:28;100262.16;;;9.02;100.00
11985;BME280;6052;53.246;10.368;2023-12-28T05:23:58;100265.09;;;9.01;100.00
11985;BME280;6052;53.246;10.368;2023-12-28T05:26:27;100265.53;;;8.98;100.00
11985;BME280;6052;53.246;10.368;2023-12-28T05:28:59;100271.47;;;9.00;100.00
11985;BME280;6052;53.246;10.368;2023-12-28T05:31:29;100261.91;;;9.04;100.00
11985;BME280;6052;53.246;10.368;2023-12-28T05:33:59;100270.44;;;9.01;100.00
11985;BME280;6052;53.246;10.368;2023-12-28T05:36:29;100263.06;;;9.08;100.00
11985;BME280;6052;53.246;10.368;2023-12-28T05:38:58;100269.16;;;9.03;100.00
11985;BME280;6052;53.246;10.368;2023-12-28T05:41:28;100252.16;;;8.98;100.00
11985;BME280;6052;53.246;10.368;2023-12-28T05:44:01;100257.38;;;9.04;100.00
11985;BME280;6052;53.246;10.368;2023-12-28T05:46:30;100272.72;;;9.09;100.00
11985;BME280;6052;53.246;10.368;2023-12-28T05:49:00;100278.91;;;9.09;100.00
11985;BME280;6052;53.246;10.368;2023-12-28T05:51:30;100257.81;;;9.13;100.00
11985;BME280;6052;53.246;10.368;2023-12-28T05:53:59;100258.78;;;9.07;100.00
11985;BME280;6052;53.246;10.368;2023-12-28T05:56:31;100261.56;;;9.12;100.00
11985;BME280;6052;53.246;10.368;2023-12-28T05:59:03;100266.06;;;9.11;100.00
11985;BME280;6052;53.246;10.368;2023-12-28T06:01:41;100252.78;;;9.16;100.00
11985;BME280;6052;53.246;10.368;2023-12-28T06:04:11;100272.13;;;9.18;100.00
11985;BME280;6052;53.246;10.368;2023-12-28T06:06:41;100249.41;;;9.21;100.00
11985;BME280;6052;53.246;10.368;2023-12-28T06:09:10;100258.50;;;9.20;100.00
11985;BME280;6052;53.246;10.368;2023-12-28T06:11:40;100264.97;;;9.24;100.00
11985;BME280;6052;53.246;10.368;2023-12-28T06:14:12;100254.97;;;9.31;100.00
11985;BME280;6052;53.246;10.368;2023-12-28T06:16:42;100263.09;;;9.36;100.00
11985;BME280;6052;53.246;10.368;2023-12-28T06:19:11;100268.69;;;9.34;100.00
11985;BME280;6052;53.246;10.368;2023-12-28T06:21:41;100260.56;;;9.29;100.00
11985;BME280;6052;53.246;10.368;2023-12-28T06:24:11;100258.19;;;9.33;100.00
11985;BME280;6052;53.246;10.368;2023-12-28T06:26:41;100268.22;;;9.37;100.00
11985;BME280;6052;53.246;10.368;2023-12-28T06:29:14;100276.94;;;9.33;100.00
11985;BME280;6052;53.246;10.368;2023-12-28T06:31:43;100272.75;;;9.37;100.00
11985;BME280;6052;53.246;10.368;2023-12-28T06:34:13;100274.88;;;9.35;100.00
11985;BME280;6052;53.246;10.368;2023-12-28T06:36:43;100271.69;;;9.38;100.00
11985;BME280;6052;53.246;10.368;2023-12-28T06:39:13;100277.53;;;9.35;100.00
11985;BME280;6052;53.246;10.368;2023-12-28T06:41:42;100276.47;;;9.36;100.00
11985;BME280;6052;53.246;10.368;2023-12-28T06:44:18;100276.56;;;9.41;100.00
11985;BME280;6052;53.246;10.368;2023-12-28T06:46:48;100280.44;;;9.33;100.00
11985;BME280;6052;53.246;10.368;2023-12-28T06:49:17;100274.97;;;9.40;100.00
11985;BME280;6052;53.246;10.368;2023-12-28T06:51:47;100276.44;;;9.47;100.00
11985;BME280;6052;53.246;10.368;2023-12-28T06:54:17;100276.91;;;9.44;100.00
11985;BME280;6052;53.246;10.368;2023-12-28T06:56:46;100258.47;;;9.48;100.00
11985;BME280;6052;53.246;10.368;2023-12-28T06:59:20;100280.41;;;9.45;100.00
11985;BME280;6052;53.246;10.368;2023-12-28T07:01:50;100271.88;;;9.48;100.00
11985;BME280;6052;53.246;10.368;2023-12-28T07:04:19;100291.69;;;9.47;100.00
11985;BME280;6052;53.246;10.368;2023-12-28T07:06:52;100276.75;;;9.51;100.00
11985;BME280;6052;53.246;10.368;2023-12-28T07:09:21;100298.75;;;9.53;100.00
11985;BME280;6052;53.246;10.368;2023-12-28T07:11:51;100285.94;;;9.55;100.00
11985;BME280;6052;53.246;10.368;2023-12-28T07:14:23;100290.16;;;9.51;100.00
11985;BME280;6052;53.246;10.368;2023-12-28T07:16:53;100289.78;;;9.59;100.00
11985;BME280;6052;53.246;10.368;2023-12-28T07:19:23;100291.63;;;9.58;100.00
11985;BME280;6052;53.246;10.368;2023-12-28T07:21:52;100299.34;;;9.55;100.00
11985;BME280;6052;53.246;10.368;2023-12-28T07:24:22;100298.72;;;9.64;100.00
11985;BME280;6052;53.246;10.368;2023-12-28T07:26:52;100288.00;;;9.64;100.00
11985;BME280;6052;53.246;10.368;2023-12-28T07:29:24;100296.44;;;9.56;100.00
11985;BME280;6052;53.246;10.368;2023-12-28T07:31:54;100277.69;;;9.56;100.00
11985;BME280;6052;53.246;10.368;2023-12-28T07:34:23;100294.09;;;9.60;100.00
11985;BME280;6052;53.246;10.368;2023-12-28T07:36:54;100289.78;;;9.59;100.00
11985;BME280;6052;53.246;10.368;2023-12-28T07:39:24;100286.19;;;9.53;100.00
11985;BME280;6052;53.246;10.368;2023-12-28T07:41:54;100280.78;;;9.65;100.00
11985;BME280;6052;53.246;10.368;2023-12-28T07:44:26;100273.34;;;9.55;100.00
11985;BME280;6052;53.246;10.368;2023-12-28T07:46:55;100275.47;;;9.53;100.00
11985;BME280;6052;53.246;10.368;2023-12-28T07:49:25;100280.09;;;9.58;100.00
11985;BME280;6052;53.246;10.368;2023-12-28T07:51:55;100290.91;;;9.63;100.00
11985;BME280;6052;53.246;10.368;2023-12-28T07:54:25;100294.25;;;9.70;100.00
11985;BME280;6052;53.246;10.368;2023-12-28T07:56:55;100287.19;;;9.64;100.00
11985;BME280;6052;53.246;10.368;2023-12-28T07:59:27;100295.47;;;9.62;100.00
11985;BME280;6052;53.246;10.368;2023-12-28T08:01:57;100286.94;;;9.65;100.00
11985;BME280;6052;53.246;10.368;2023-12-28T08:04:26;100297.66;;;9.65;100.00
11985;BME280;6052;53.246;10.368;2023-12-28T08:06:56;100293.19;;;9.71;100.00
11985;BME280;6052;53.246;10.368;2023-12-28T08:09:26;100284.09;;;9.72;100.00
11985;BME280;6052;53.246;10.368;2023-12-28T08:11:56;100289.00;;;9.75;100.00
11985;BME280;6052;53.246;10.368;2023-12-28T08:14:28;100279.91;;;9.76;100.00
11985;BME280;6052;53.246;10.368;2023-12-28T08:16:58;100286.63;;;9.78;100.00
11985;BME280;6052;53.246;10.368;2023-12-28T08:19:27;100269.91;;;9.71;100.00
11985;BME280;6052;53.246;10.368;2023-12-28T08:21:57;100284.50;;;9.80;100.00
11985;BME280;6052;53.246;10.368;2023-12-28T08:24:27;100293.38;;;9.81;100.00
11985;BME280;6052;53.246;10.368;2023-12-28T08:26:57;100280.38;;;9.89;100.00
11985;BME280;6052;53.246;10.368;2023-12-28T08:29:32;100270.16;;;9.86;100.00
11985;BME280;6052;53.246;10.368;2023-12-28T08:32:06;100261.31;;;9.86;100.00
11985;BME280;6052;53.246;10.368;2023-12-28T08:34:38;100257.16;;;9.78;100.00
11985;BME280;6052;53.246;10.368;2023-12-28T08:37:12;100276.16;;;9.93;100.00
11985;BME280;6052;53.246;10.368;2023-12-28T08:39:45;100239.16;;;9.90;100.00
11985;BME280;6052;53.246;10.368;2023-12-28T08:42:25;100258.31;;;9.99;100.00
11985;BME280;6052;53.246;10.368;2023-12-28T08:44:59;100263.56;;;10.05;100.00
11985;BME280;6052;53.246;10.368;2023-12-28T08:47:28;100270.19;;;10.03;100.00
11985;BME280;6052;53.246;10.368;2023-12-28T08:49:58;100258.50;;;10.09;100.00
11985;BME280;6052;53.246;10.368;2023-12-28T08:52:28;100256.97;;;10.13;100.00
11985;BME280;6052;53.246;10.368;2023-12-28T08:54:58;100255.91;;;10.14;100.00
11985;BME280;6052;53.246;10.368;2023-12-28T08:57:28;100242.88;;;10.22;100.00
11985;BME280;6052;53.246;10.368;2023-12-28T09:00:12;100253.38;;;10.24;100.00
11985;BME280;6052;53.246;10.368;2023-12-28T09:02:43;100241.81;;;10.23;100.00
11985;BME280;6052;53.246;10.368;2023-12-28T09:05:13;100245.25;;;10.19;100.00
11985;BME280;6052;53.246;10.368;2023-12-28T09:07:43;100257.44;;;10.26;100.00
11985;BME280;6052;53.246;10.368;2023-12-28T09:10:13;100259.06;;;10.27;100.00
11985;BME280;6052;53.246;10.368;2023-12-28T09:12:42;100259.13;;;10.32;100.00
11985;BME280;6052;53.246;10.368;2023-12-28T09:15:15;100247.84;;;10.30;100.00
11985;BME280;6052;53.246;10.368;2023-12-28T09:17:44;100285.72;;;10.34;100.00
11985;BME280;6052;53.246;10.368;2023-12-28T09:20:14;100265.38;;;10.38;100.00
11985;BME280;6052;53.246;10.368;2023-12-28T09:22:44;100272.44;;;10.44;100.00
11985;BME280;6052;53.246;10.368;2023-12-28T09:25:14;100258.47;;;10.42;100.00
11985;BME280;6052;53.246;10.368;2023-12-28T09:27:44;100258.97;;;10.39;100.00
11985;BME280;6052;53.246;10.368;2023-12-28T09:30:17;100285.78;;;10.39;100.00
11985;BME280;6052;53.246;10.368;2023-12-28T09:32:47;100278.88;;;10.43;100.00
11985;BME280;6052;53.246;10.368;2023-12-28T09:35:17;100266.75;;;10.57;100.00
11985;BME280;6052;53.246;10.368;2023-12-28T09:37:46;100275.41;;;10.64;100.00
11985;BME280;6052;53.246;10.368;2023-12-28T09:40:16;100260.38;;;10.63;100.00
11985;BME280;6052;53.246;10.368;2023-12-28T09:42:53;100274.03;;;10.61;100.00
11985;BME280;6052;53.246;10.368;2023-12-28T09:45:29;100274.00;;;10.78;100.00
11985;BME280;6052;53.246;10.368;2023-12-28T09:47:59;100281.22;;;10.77;100.00
11985;BME280;6052;53.246;10.368;2023-12-28T09:50:30;100285.88;;;10.82;100.00
11985;BME280;6052;53.246;10.368;2023-12-28T09:52:59;100280.81;;;10.85;100.00
11985;BME280;6052;53.246;10.368;2023-12-28T09:55:29;100289.09;;;10.84;100.00
11985;BME280;6052;53.246;10.368;2023-12-28T09:58:00;100287.88;;;10.91;100.00
11985;BME280;6052;53.246;10.368;2023-12-28T10:00:32;100287.88;;;10.91;100.00
11985;BME280;6052;53.246;10.368;2023-12-28T10:03:03;100308.16;;;10.82;100.00
11985;BME280;6052;53.246;10.368;2023-12-28T10:05:32;100296.22;;;10.95;100.00
11985;BME280;6052;53.246;10.368;2023-12-28T10:08:03;100283.25;;;10.87;100.00
11985;BME280;6052;53.246;10.368;2023-12-28T10:10:32;100273.25;;;10.82;100.00
11985;BME280;6052;53.246;10.368;2023-12-28T10:13:02;100276.56;;;10.89;100.00
11985;BME280;6052;53.246;10.368;2023-12-28T10:15:35;100265.59;;;10.91;100.00
11985;BME280;6052;53.246;10.368;2023-12-28T10:18:05;100248.47;;;10.97;100.00
11985;BME280;6052;53.246;10.368;2023-12-28T10:20:36;100240.97;;;10.99;100.00
11985;BME280;6052;53.246;10.368;2023-12-28T10:23:06;100234.34;;;11.06;100.00
11985;BME280;6052;53.246;10.368;2023-12-28T10:25:36;100241.41;;;11.12;100.00
11985;BME280;6052;53.246;10.368;2023-12-28T10:28:06;100240.78;;;11.05;100.00
11985;BME280;6052;53.246;10.368;2023-12-28T10:30:38;100248.03;;;11.05;100.00
11985;BME280;6052;53.246;10.368;2023-12-28T10:33:09;100262.44;;;10.99;100.00
11985;BME280;6052;53.246;10.368;2023-12-28T10:35:39;100253.31;;;11.00;100.00
11985;BME280;6052;53.246;10.368;2023-12-28T10:38:07;100277.91;;;11.08;100.00
11985;BME280;6052;53.246;10.368;2023-12-28T10:40:40;100271.75;;;11.13;100.00
11985;BME280;6052;53.246;10.368;2023-12-28T10:43:11;100266.84;;;11.05;100.00
11985;BME280;6052;53.246;10.368;2023-12-28T10:45:46;100249.91;;;11.04;100.00
11985;BME280;6052;53.246;10.368;2023-12-28T10:48:18;100278.63;;;11.04;100.00
11985;BME280;6052;53.246;10.368;2023-12-28T10:50:51;100281.31;;;11.04;100.00
11985;BME280;6052;53.246;10.368;2023-12-28T10:53:36;100268.28;;;11.12;100.00
11985;BME280;6052;53.246;10.368;2023-12-28T10:56:16;100286.25;;;11.12;100.00
11985;BME280;6052;53.246;10.368;2023-12-28T10:58:53;100277.94;;;11.13;100.00
11985;BME280;6052;53.246;10.368;2023-12-28T11:01:31;100281.94;;;11.11;100.00
11985;BME280;6052;53.246;10.368;2023-12-28T11:04:05;100283.88;;;11.15;100.00
11985;BME280;6052;53.246;10.368;2023-12-28T11:06:38;100274.81;;;11.21;100.00
11985;BME280;6052;53.246;10.368;2023-12-28T11:09:10;100276.63;;;11.16;100.00
11985;BME280;6052;53.246;10.368;2023-12-28T11:11:43;100285.72;;;11.10;100.00
11985;BME280;6052;53.246;10.368;2023-12-28T11:14:12;100277.38;;;11.11;100.00
11985;BME280;6052;53.246;10.368;2023-12-28T11:16:45;100286.31;;;11.17;100.00
11985;BME280;6052;53.246;10.368;2023-12-28T11:19:16;100279.09;;;11.17;100.00
11985;BME280;6052;53.246;10.368;2023-12-28T11:21:46;100280.94;;;11.17;100.00
11985;BME280;6052;53.246;10.368;2023-12-28T11:24:16;100275.31;;;11.18;100.00
11985;BME280;6052;53.246;10.368;2023-12-28T11:26:52;100271.81;;;11.18;100.00
11985;BME280;6052;53.246;10.368;2023-12-28T11:29:23;100273.66;;;11.12;100.00
11985;BME280;6052;53.246;10.368;2023-12-28T11:31:58;100272.06;;;11.16;100.00
11985;BME280;6052;53.246;10.368;2023-12-28T11:34:28;100267.16;;;11.08;100.00
11985;BME280;6052;53.246;10.368;2023-12-28T11:37:04;100260.94;;;11.08;100.00
11985;BME280;6052;53.246;10.368;2023-12-28T11:39:35;100269.59;;;11.10;100.00
11985;BME280;6052;53.246;10.368;2023-12-28T11:42:07;100270.75;;;11.19;100.00
11985;BME280;6052;53.246;10.368;2023-12-28T11:44:37;100265.91;;;11.16;100.00
11985;BME280;6052;53.246;10.368;2023-12-28T11:47:15;100260.28;;;11.17;100.00
11985;BME280;6052;53.246;10.368;2023-12-28T11:49:45;100285.13;;;11.08;100.00
11985;BME280;6052;53.246;10.368;2023-12-28T11:52:25;100250.09;;;11.19;100.00
11985;BME280;6052;53.246;10.368;2023-12-28T11:54:55;100257.00;;;11.15;100.00
11985;BME280;6052;53.246;10.368;2023-12-28T11:57:26;100255.16;;;11.16;100.00
11985;BME280;6052;53.246;10.368;2023-12-28T11:59:58;100251.69;;;11.20;100.00
11985;BME280;6052;53.246;10.368;2023-12-28T12:02:31;100259.25;;;11.23;100.00
11985;BME280;6052;53.246;10.368;2023-12-28T12:05:01;100249.38;;;11.29;100.00
11985;BME280;6052;53.246;10.368;2023-12-28T12:07:31;100249.13;;;11.30;100.00
11985;BME280;6052;53.246;10.368;2023-12-28T12:10:01;100251.56;;;11.32;100.00
11985;BME280;6052;53.246;10.368;2023-12-28T12:12:30;100255.75;;;11.23;100.00
11985;BME280;6052;53.246;10.368;2023-12-28T12:15:00;100252.28;;;11.22;100.00
11985;BME280;6052;53.246;10.368;2023-12-28T12:17:32;100262.31;;;11.32;100.00
11985;BME280;6052;53.246;10.368;2023-12-28T12:20:03;100241.31;;;11.29;100.00
11985;BME280;6052;53.246;10.368;2023-12-28T12:22:32;100254.19;;;11.27;100.00
11985;BME280;6052;53.246;10.368;2023-12-28T12:25:03;100268.81;;;11.36;100.00
11985;BME280;6052;53.246;10.368;2023-12-28T12:27:35;100257.00;;;11.37;100.00
11985;BME280;6052;53.246;10.368;2023-12-28T12:30:07;100255.03;;;11.27;100.00
11985;BME280;6052;53.246;10.368;2023-12-28T12:32:39;100261.00;;;11.34;100.00
11985;BME280;6052;53.246;10.368;2023-12-28T12:35:11;100256.44;;;11.35;100.00
11985;BME280;6052;53.246;10.368;2023-12-28T12:37:42;100259.84;;;11.52;100.00
11985;BME280;6052;53.246;10.368;2023-12-28T12:40:12;100253.81;;;11.40;100.00
11985;BME280;6052;53.246;10.368;2023-12-28T12:42:43;100262.75;;;11.50;100.00
11985;BME280;6052;53.246;10.368;2023-12-28T12:45:13;100257.63;;;11.44;100.00
11985;BME280;6052;53.246;10.368;2023-12-28T12:47:46;100251.53;;;11.53;100.00
11985;BME280;6052;53.246;10.368;2023-12-28T12:50:16;100259.97;;;11.40;100.00
11985;BME280;6052;53.246;10.368;2023-12-28T12:52:47;100252.84;;;11.51;100.00
11985;BME280;6052;53.246;10.368;2023-12-28T12:55:16;100239.16;;;11.52;100.00
11985;BME280;6052;53.246;10.368;2023-12-28T12:57:46;100261.44;;;11.53;100.00
11985;BME280;6052;53.246;10.368;2023-12-28T13:00:17;100257.88;;;11.42;100.00
11985;BME280;6052;53.246;10.368;2023-12-28T13:02:51;100250.16;;;11.51;100.00
11985;BME280;6052;53.246;10.368;2023-12-28T13:05:24;100250.69;;;11.53;100.00